Time;durP1;ratioP1;P1;durP2;ratioP2;P2;SDS_P1;SDS_P2;PMS_P1;PMS_P2;Temp;Humidity;BMP_temperature;BMP_pressure;BME280_temperature;BME280_humidity;BME280_pressure;Samples;Min_cycle;Max_cycle;Signal;HPM_P1;HPM_P2
2022/04/25 00:01:15;;;;;;;0.65;0.28;;;8.80;99.90;;;;;;5080094;28;20021;-82
2022/04/25 00:03:41;;;;;;;0.40;0.20;;;8.80;99.90;;;;;;5060919;28;20017;-81
2022/04/25 00:06:10;;;;;;;0.10;0.10;;;8.80;99.90;;;;;;5060917;28;20028;-81
2022/04/25 00:08:37;;;;;;;0.10;0.10;;;8.80;99.90;;;;;;5059520;28;20266;-82
2022/04/25 00:11:04;;;;;;;0.55;0.20;;;8.80;99.90;;;;;;5078768;28;20453;-82
2022/04/25 00:13:30;;;;;;;0.00;0.00;;;8.80;99.90;;;;;;5078191;28;20436;-81
2022/04/25 00:15:56;;;;;;;0.10;0.10;;;8.80;99.90;;;;;;5060945;28;20028;-81
2022/04/25 00:18:22;;;;;;;0.30;0.20;;;8.80;99.90;;;;;;5059274;28;20021;-82
2022/04/25 00:20:49;;;;;;;0.30;0.20;;;8.80;99.90;;;;;;5077796;28;20028;-81
2022/04/25 00:23:15;;;;;;;0.30;0.30;;;8.80;99.90;;;;;;5077515;28;20062;-83
2022/04/25 00:25:41;;;;;;;0.20;0.20;;;8.80;99.90;;;;;;5078214;28;20099;-81
2022/04/25 00:28:10;;;;;;;0.28;0.20;;;8.80;99.90;;;;;;5059906;28;20051;-82
2022/04/25 00:30:36;;;;;;;0.10;0.10;;;8.90;99.90;;;;;;5066628;28;20029;-81
2022/04/25 00:33:02;;;;;;;0.20;0.20;;;8.90;99.90;;;;;;5094219;28;20009;-81
2022/04/25 00:35:28;;;;;;;0.20;0.20;;;8.90;99.90;;;;;;5094998;28;20107;-82
2022/04/25 00:37:55;;;;;;;0.20;0.20;;;8.90;99.90;;;;;;5075407;28;20050;-79
2022/04/25 00:40:24;;;;;;;0.30;0.30;;;8.90;99.90;;;;;;5062156;28;20020;-79
2022/04/25 00:42:51;;;;;;;0.20;0.10;;;8.90;99.90;;;;;;5059383;28;20545;-79
2022/04/25 00:45:17;;;;;;;0.55;0.32;;;8.90;99.90;;;;;;5076595;28;20048;-80
2022/04/25 00:47:44;;;;;;;0.45;0.10;;;8.90;99.90;;;;;;5058623;28;20031;-80
2022/04/25 00:50:12;;;;;;;0.80;0.00;;;8.90;99.90;;;;;;5077847;28;20024;-80
2022/04/25 00:52:48;;;;;;;0.20;0.20;;;8.90;99.90;;;;;;5059990;28;20040;-80
2022/04/25 00:55:23;;;;;;;0.20;0.20;;;8.90;99.90;;;;;;5060498;28;20021;-79
2022/04/25 00:57:51;;;;;;;0.10;0.10;;;8.80;99.90;;;;;;5061996;28;20167;-78
2022/04/25 01:00:17;;;;;;;0.10;0.10;;;8.80;99.90;;;;;;5079740;28;20039;-80
2022/04/25 01:02:43;;;;;;;0.80;0.20;;;8.80;99.90;;;;;;5077331;28;20076;-80
2022/04/25 01:05:23;;;;;;;0.82;0.10;;;8.80;99.90;;;;;;5057922;28;20047;-80
2022/04/25 01:07:49;;;;;;;0.40;0.40;;;8.80;99.90;;;;;;5057169;28;20043;-82
2022/04/25 01:10:15;;;;;;;0.50;0.20;;;8.90;99.90;;;;;;5062316;28;20025;-82
2022/04/25 01:12:41;;;;;;;0.20;0.20;;;8.90;99.90;;;;;;5077501;28;20107;-83
2022/04/25 01:15:12;;;;;;;0.15;0.15;;;8.90;99.90;;;;;;5077057;28;20017;-81
2022/04/25 01:17:43;;;;;;;0.15;0.15;;;8.80;99.90;;;;;;5058613;28;20024;-83
2022/04/25 01:30:10;;;;;;;0.10;0.10;;;8.90;99.90;;;;;;5045253;28;20059;-82
2022/04/25 01:32:38;;;;;;;0.10;0.10;;;8.90;99.90;;;;;;5017293;28;20045;-80
2022/04/25 01:35:05;;;;;;;0.43;0.30;;;8.90;99.90;;;;;;5057694;28;20134;-80
2022/04/25 01:37:31;;;;;;;0.00;0.00;;;8.90;99.90;;;;;;5058409;28;20397;-85
2022/04/25 01:39:57;;;;;;;0.10;0.10;;;8.90;99.90;;;;;;5057601;28;20024;-82
2022/04/25 01:42:23;;;;;;;0.03;0.03;;;8.90;99.90;;;;;;5057970;28;20035;-82
2022/04/25 01:44:50;;;;;;;0.10;0.05;;;8.90;99.90;;;;;;5076481;28;20025;-84
2022/04/25 01:47:17;;;;;;;0.22;0.10;;;9.00;99.90;;;;;;5075971;28;20464;-81
2022/04/25 01:49:43;;;;;;;0.20;0.10;;;8.90;99.90;;;;;;5076169;28;20029;-81
2022/04/25 01:52:28;;;;;;;0.15;0.15;;;8.90;99.90;;;;;;5057851;28;20426;-80
2022/04/25 01:54:54;;;;;;;0.13;0.13;;;8.90;99.90;;;;;;5058079;28;20035;-82
2022/04/25 01:57:21;;;;;;;0.15;0.15;;;9.00;99.90;;;;;;5057715;28;20021;-82
2022/04/25 01:59:47;;;;;;;0.10;0.10;;;9.00;99.90;;;;;;5057549;28;20025;-80
2022/04/25 02:02:14;;;;;;;0.32;0.20;;;8.90;99.90;;;;;;5076551;28;20477;-81
2022/04/25 02:04:40;;;;;;;0.10;0.10;;;8.90;99.90;;;;;;5076751;28;20047;-80
2022/04/25 02:07:07;;;;;;;0.30;0.30;;;8.90;99.90;;;;;;5062729;28;20047;-79
2022/04/25 02:09:34;;;;;;;0.22;0.10;;;8.90;99.90;;;;;;5084674;28;20146;-86
2022/04/25 02:12:03;;;;;;;0.10;0.10;;;9.00;99.90;;;;;;5096116;28;20045;-85
2022/04/25 02:14:29;;;;;;;0.10;0.10;;;8.90;99.90;;;;;;5072272;28;20123;-80
2022/04/25 02:16:58;;;;;;;0.08;0.08;;;9.00;99.90;;;;;;5060221;28;20036;-79
2022/04/25 02:19:28;;;;;;;0.10;0.10;;;9.00;99.90;;;;;;5077110;28;20082;-81
2022/04/25 02:21:55;;;;;;;0.10;0.10;;;9.00;99.90;;;;;;5057705;28;20397;-83
2022/04/25 02:24:21;;;;;;;0.03;0.03;;;9.00;99.90;;;;;;5080909;28;20036;-80
2022/04/25 02:26:50;;;;;;;0.15;0.10;;;9.00;99.90;;;;;;5078250;28;20526;-80
2022/04/25 02:29:18;;;;;;;0.15;0.10;;;9.00;99.90;;;;;;5058283;28;20047;-82
2022/04/25 02:31:44;;;;;;;0.10;0.10;;;9.00;99.90;;;;;;5059336;28;20028;-81
2022/04/25 02:34:10;;;;;;;0.65;0.35;;;9.00;99.90;;;;;;5075265;28;20024;-81
2022/04/25 02:36:36;;;;;;;0.20;0.20;;;9.00;99.90;;;;;;5057778;28;20025;-82
2022/04/25 02:39:02;;;;;;;0.15;0.15;;;9.00;99.90;;;;;;5056083;28;20473;-80
2022/04/25 02:41:28;;;;;;;0.15;0.15;;;9.00;99.90;;;;;;5073483;28;20023;-82
2022/04/25 02:43:54;;;;;;;0.10;0.10;;;9.00;99.90;;;;;;5056101;28;20020;-82
2022/04/25 02:46:19;;;;;;;0.30;0.20;;;9.00;99.90;;;;;;5055947;28;20037;-79
2022/04/25 02:48:46;;;;;;;0.43;0.13;;;9.00;99.90;;;;;;5055617;28;20032;-80
2022/04/25 02:51:13;;;;;;;0.63;0.15;;;9.00;99.90;;;;;;5074256;28;20031;-81
2022/04/25 02:53:39;;;;;;;0.20;0.17;;;9.00;99.90;;;;;;5074387;28;20016;-78
2022/04/25 02:56:06;;;;;;;0.43;0.25;;;9.00;99.90;;;;;;5057228;28;20031;-80
2022/04/25 02:58:33;;;;;;;0.13;0.13;;;9.00;99.90;;;;;;5075163;28;20036;-80
2022/04/25 03:01:00;;;;;;;0.20;0.20;;;9.00;99.90;;;;;;5057334;28;20085;-82
2022/04/25 03:03:26;;;;;;;0.55;0.30;;;9.00;99.90;;;;;;5074984;28;20024;-81
2022/04/25 03:05:53;;;;;;;0.40;0.30;;;9.00;99.90;;;;;;5076912;28;20025;-81
2022/04/25 03:08:22;;;;;;;0.38;0.30;;;9.00;99.90;;;;;;5076506;28;20476;-81
2022/04/25 03:10:49;;;;;;;0.20;0.20;;;9.00;99.90;;;;;;5057073;28;20032;-80
2022/04/25 03:13:16;;;;;;;0.35;0.32;;;9.00;99.90;;;;;;5057254;28;20051;-82
2022/04/25 03:15:43;;;;;;;0.75;0.20;;;9.00;99.90;;;;;;5075227;28;20380;-80
2022/04/25 03:18:10;;;;;;;0.30;0.30;;;8.90;99.90;;;;;;5074414;28;20392;-82
2022/04/25 03:20:37;;;;;;;0.80;0.25;;;8.90;99.90;;;;;;5075061;28;20325;-80
2022/04/25 03:23:05;;;;;;;0.20;0.20;;;8.90;99.90;;;;;;5075450;28;20534;-83
2022/04/25 03:25:37;;;;;;;0.20;0.20;;;8.90;99.90;;;;;;5064989;28;20021;-81
2022/04/25 03:28:03;;;;;;;0.20;0.20;;;9.00;99.90;;;;;;5038820;28;20021;-82
2022/04/25 03:30:31;;;;;;;0.30;0.30;;;9.00;99.90;;;;;;5056323;28;20385;-83
2022/04/25 03:32:58;;;;;;;0.20;0.20;;;9.00;99.90;;;;;;5056834;28;20277;-82
2022/04/25 03:35:24;;;;;;;0.10;0.10;;;9.00;99.90;;;;;;5057332;28;20386;-84
2022/04/25 03:37:51;;;;;;;0.20;0.20;;;9.00;99.90;;;;;;5061555;28;20025;-82
2022/04/25 03:40:18;;;;;;;0.20;0.20;;;9.00;99.90;;;;;;5077542;28;20113;-83
2022/04/25 03:42:45;;;;;;;6.22;0.60;;;9.00;99.90;;;;;;5060245;28;20105;-80
2022/04/25 03:45:16;;;;;;;0.60;0.40;;;9.00;99.90;;;;;;5062016;28;20025;-80
2022/04/25 03:47:43;;;;;;;0.50;0.35;;;9.00;99.90;;;;;;5079726;28;20027;-82
2022/04/25 03:50:10;;;;;;;0.30;0.28;;;9.00;99.90;;;;;;5073009;28;20017;-78
2022/04/25 03:52:40;;;;;;;1.00;0.22;;;9.00;99.90;;;;;;5038266;28;20098;-80
2022/04/25 03:57:53;;;;;;;0.30;0.30;;;9.00;99.90;;;;;;5056017;28;20110;-80
2022/04/25 04:00:18;;;;;;;0.25;0.25;;;9.00;99.90;;;;;;5056917;28;20136;-80
2022/04/25 04:02:45;;;;;;;0.30;0.30;;;9.00;99.90;;;;;;5056485;28;20458;-80
2022/04/25 04:05:11;;;;;;;0.47;0.40;;;9.10;99.90;;;;;;5056498;28;20367;-80
2022/04/25 04:07:37;;;;;;;0.30;0.30;;;9.10;99.90;;;;;;5064759;28;20082;-78
2022/04/25 04:10:03;;;;;;;0.10;0.10;;;9.10;99.90;;;;;;5076513;28;20020;-78
2022/04/25 04:12:34;;;;;;;0.45;0.30;;;9.10;99.90;;;;;;5076583;28;20395;-80
2022/04/25 04:15:03;;;;;;;0.40;0.40;;;9.10;99.90;;;;;;5058443;28;20052;-79
2022/04/25 04:17:29;;;;;;;0.40;0.40;;;9.10;99.90;;;;;;5077626;28;20363;-84
2022/04/25 04:19:56;;;;;;;0.50;0.50;;;9.10;99.90;;;;;;5077151;28;20088;-80
2022/04/25 04:22:22;;;;;;;0.68;0.68;;;9.10;99.90;;;;;;5077924;28;20029;-80
2022/04/25 04:24:49;;;;;;;0.68;0.60;;;9.10;99.90;;;;;;5059305;28;20028;-81
2022/04/25 04:27:15;;;;;;;0.60;0.60;;;9.10;99.90;;;;;;5077379;28;20107;-81
2022/04/25 04:29:42;;;;;;;1.15;0.50;;;9.10;99.90;;;;;;5077503;28;20028;-79
2022/04/25 04:32:08;;;;;;;0.52;0.52;;;9.10;99.90;;;;;;5077108;28;20088;-81
2022/04/25 04:34:37;;;;;;;0.65;0.65;;;9.10;99.90;;;;;;5060330;28;20384;-81
2022/04/25 04:37:04;;;;;;;0.85;0.80;;;9.10;99.90;;;;;;5060954;28;20067;-80
2022/04/25 04:39:31;;;;;;;1.05;1.02;;;9.10;99.90;;;;;;5060571;28;20017;-82
2022/04/25 04:41:57;;;;;;;2.88;1.58;;;9.10;99.90;;;;;;5041670;28;20662;-79
2022/04/25 04:44:23;;;;;;;1.30;1.20;;;9.10;99.90;;;;;;5070628;28;20032;-81
2022/04/25 04:46:49;;;;;;;1.17;0.93;;;9.20;99.90;;;;;;5078901;28;20056;-78
2022/04/25 04:49:15;;;;;;;0.70;0.70;;;9.20;99.90;;;;;;5078550;28;20032;-80
2022/04/25 04:51:42;;;;;;;1.35;1.25;;;9.20;99.90;;;;;;5079207;28;20033;-80
2022/04/25 04:54:07;;;;;;;1.13;1.05;;;9.20;99.90;;;;;;5079575;28;20013;-79
2022/04/25 04:56:33;;;;;;;2.97;1.42;;;9.20;99.90;;;;;;5075771;28;20020;-79
2022/04/25 04:59:00;;;;;;;2.08;1.45;;;9.30;99.90;;;;;;5074820;28;20056;-79
2022/04/25 05:01:26;;;;;;;0.77;0.77;;;9.30;99.90;;;;;;5076962;28;20021;-83
2022/04/25 05:03:52;;;;;;;0.98;0.93;;;9.30;99.90;;;;;;5078030;28;20032;-78
2022/04/25 05:06:18;;;;;;;2.47;1.02;;;9.30;99.90;;;;;;5073795;28;20025;-81
2022/04/25 05:08:44;;;;;;;1.50;1.40;;;9.40;99.90;;;;;;5067209;28;20082;-79
2022/04/25 05:11:19;;;;;;;2.63;1.02;;;9.40;99.90;;;;;;5070507;28;20544;-82
2022/04/25 05:14:04;;;;;;;1.48;1.20;;;9.40;99.90;;;;;;5036685;28;20296;-77
2022/04/25 05:16:37;;;;;;;1.35;1.10;;;9.50;99.90;;;;;;5009977;28;20025;-78
2022/04/25 05:19:15;;;;;;;1.83;1.27;;;9.50;99.90;;;;;;5037763;28;20047;-80
2022/04/25 05:21:42;;;;;;;2.03;1.52;;;9.50;99.90;;;;;;5048238;28;20034;-79
2022/04/25 05:24:09;;;;;;;1.88;1.77;;;9.50;99.90;;;;;;5056669;28;20032;-80
2022/04/25 05:26:35;;;;;;;1.75;1.65;;;9.50;99.90;;;;;;5058406;28;20085;-81
2022/04/25 05:29:01;;;;;;;1.85;1.63;;;9.60;99.90;;;;;;5058799;28;20384;-80
2022/04/25 05:31:27;;;;;;;2.28;1.70;;;9.60;99.90;;;;;;5059332;28;20024;-80
2022/04/25 05:33:52;;;;;;;1.80;1.70;;;9.60;99.90;;;;;;5071472;28;20029;-79
2022/04/25 05:36:18;;;;;;;2.05;1.90;;;9.70;99.90;;;;;;5058501;28;20044;-82
2022/04/25 05:38:47;;;;;;;1.80;1.70;;;9.80;99.90;;;;;;5077137;28;20027;-80
2022/04/25 05:41:13;;;;;;;1.98;1.77;;;9.90;99.90;;;;;;5078659;28;20020;-80
2022/04/25 05:43:50;;;;;;;3.80;2.92;;;10.10;99.90;;;;;;5086194;28;20021;-82
2022/04/25 05:46:16;;;;;;;4.65;3.50;;;10.20;99.90;;;;;;5084497;28;20086;-80
2022/04/25 05:54:12;;;;;;;2.97;2.63;;;10.10;99.90;;;;;;5084710;28;20051;-79
2022/04/25 05:56:39;;;;;;;2.88;2.55;;;10.20;99.90;;;;;;5059998;28;20111;-81
2022/04/25 05:59:05;;;;;;;3.42;3.13;;;10.30;99.90;;;;;;5076752;28;20055;-80
2022/04/25 06:01:30;;;;;;;6.38;3.50;;;10.40;99.90;;;;;;5060551;28;20029;-80
2022/04/25 06:03:56;;;;;;;5.68;3.10;;;10.50;99.90;;;;;;5059839;28;20024;-79
2022/04/25 06:06:23;;;;;;;4.57;3.85;;;10.60;99.90;;;;;;5076817;28;20492;-79
2022/04/25 06:08:49;;;;;;;5.00;3.95;;;10.70;99.90;;;;;;5058785;28;20043;-82
2022/04/25 06:11:15;;;;;;;5.22;4.28;;;10.80;99.90;;;;;;5065087;28;20024;-82
2022/04/25 06:13:44;;;;;;;6.50;5.10;;;10.80;99.90;;;;;;5069800;28;20020;-82
2022/04/25 06:16:35;;;;;;;6.88;6.18;;;11.00;99.90;;;;;;5074191;28;20017;-81
2022/04/25 06:19:02;;;;;;;7.85;6.47;;;11.00;99.90;;;;;;5076266;28;20020;-81
2022/04/25 06:21:28;;;;;;;8.77;7.03;;;11.00;99.90;;;;;;5073691;28;20610;-83
2022/04/25 06:23:54;;;;;;;7.78;6.68;;;11.10;99.10;;;;;;5072604;28;20025;-82
2022/04/25 06:26:19;;;;;;;10.88;9.15;;;11.20;99.60;;;;;;5070435;28;20171;-83
2022/04/25 06:28:45;;;;;;;11.07;9.80;;;11.30;98.50;;;;;;5086008;28;20031;-79
2022/04/25 06:31:11;;;;;;;12.75;9.82;;;11.30;97.90;;;;;;5064008;28;20024;-81
2022/04/25 06:33:38;;;;;;;11.25;9.30;;;11.30;98.40;;;;;;5053678;28;20028;-81
2022/04/25 06:36:04;;;;;;;12.52;10.30;;;11.40;98.40;;;;;;5080516;28;20051;-79
2022/04/25 06:38:30;;;;;;;12.27;9.70;;;11.40;97.30;;;;;;5061124;28;20029;-81
2022/04/25 06:40:56;;;;;;;9.85;8.80;;;11.40;97.50;;;;;;5060635;28;20025;-81
2022/04/25 06:43:22;;;;;;;9.50;8.07;;;11.40;97.50;;;;;;5059538;28;20028;-82
2022/04/25 06:45:47;;;;;;;12.05;9.88;;;11.40;97.50;;;;;;5061001;28;20353;-81
2022/04/25 06:48:13;;;;;;;10.68;9.00;;;11.40;97.30;;;;;;5079603;28;20267;-80
2022/04/25 06:50:39;;;;;;;13.43;10.40;;;11.40;96.90;;;;;;5079309;28;20029;-82
2022/04/25 06:53:05;;;;;;;14.88;9.15;;;11.50;96.70;;;;;;5079261;28;20051;-84
2022/04/25 06:55:31;;;;;;;10.50;9.40;;;11.70;95.90;;;;;;5042395;28;20025;-82
2022/04/25 06:57:59;;;;;;;12.15;9.27;;;11.80;95.60;;;;;;5057815;28;20021;-81
2022/04/25 07:00:26;;;;;;;11.35;8.63;;;11.90;95.50;;;;;;5041198;28;20036;-81
2022/04/25 07:02:51;;;;;;;11.80;9.35;;;12.00;95.40;;;;;;5061672;28;20165;-81
2022/04/25 07:05:19;;;;;;;11.52;8.98;;;12.20;94.20;;;;;;5067788;28;20028;-83
2022/04/25 07:07:52;;;;;;;10.10;9.05;;;12.30;94.10;;;;;;5069776;28;20040;-83
2022/04/25 07:10:18;;;;;;;9.50;8.02;;;12.30;93.20;;;;;;5063139;28;20035;-84
2022/04/25 07:12:44;;;;;;;11.63;8.35;;;12.30;93.50;;;;;;5093315;28;20047;-84
2022/04/25 07:15:10;;;;;;;9.45;7.78;;;12.20;93.90;;;;;;5072453;28;20032;-84
2022/04/25 07:17:38;;;;;;;8.80;7.90;;;12.10;93.90;;;;;;5084355;28;20056;-84
2022/04/25 07:20:05;;;;;;;9.73;8.13;;;12.20;93.30;;;;;;5080367;28;20113;-83
2022/04/25 07:30:43;;;;;;;8.60;7.50;;;12.00;93.60;;;;;;5092622;28;20028;-87
2022/04/25 07:33:09;;;;;;;10.68;7.90;;;12.10;93.30;;;;;;5073769;28;20037;-83
2022/04/25 07:35:36;;;;;;;9.73;8.05;;;12.40;92.80;;;;;;5068083;28;20110;-83
2022/04/25 07:38:02;;;;;;;7.72;6.88;;;12.60;91.10;;;;;;5062243;28;20025;-82
2022/04/25 07:40:29;;;;;;;7.22;6.40;;;12.90;90.90;;;;;;5062521;28;20034;-83
2022/04/25 07:42:55;;;;;;;7.38;6.25;;;13.10;90.70;;;;;;5080468;28;20084;-84
2022/04/25 07:45:21;;;;;;;8.63;6.78;;;13.10;90.50;;;;;;5062112;28;20031;-85
2022/04/25 07:47:47;;;;;;;7.45;6.70;;;13.10;89.00;;;;;;5062485;28;20023;-84
2022/04/25 07:50:15;;;;;;;7.45;6.68;;;13.00;90.10;;;;;;5079893;28;20020;-86
2022/04/25 07:52:41;;;;;;;7.68;6.75;;;12.90;90.40;;;;;;5060887;28;20024;-82
2022/04/25 07:55:07;;;;;;;9.90;7.93;;;13.10;88.90;;;;;;5064363;28;20020;-82
2022/04/25 07:57:34;;;;;;;8.88;7.25;;;13.40;85.80;;;;;;5065274;28;20021;-85
2022/04/25 08:00:00;;;;;;;12.70;7.88;;;13.60;84.70;;;;;;5064958;28;20025;-83
2022/04/25 08:02:27;;;;;;;11.63;7.95;;;13.70;82.70;;;;;;5092271;28;20032;-87
2022/04/25 08:04:53;;;;;;;11.00;7.05;;;13.80;81.60;;;;;;5081093;28;20033;-83
2022/04/25 08:07:19;;;;;;;9.38;8.38;;;13.80;82.10;;;;;;5087508;28;20047;-83
2022/04/25 08:09:44;;;;;;;8.75;7.85;;;13.90;81.80;;;;;;5064957;28;20488;-84
2022/04/25 08:20:24;;;;;;;12.18;9.38;;;13.30;85.10;;;;;;5085183;28;20078;-83
2022/04/25 08:22:50;;;;;;;10.90;8.80;;;13.40;84.80;;;;;;5066659;28;20025;-84
2022/04/25 08:25:17;;;;;;;9.77;8.40;;;13.50;83.10;;;;;;5068529;28;20028;-85
2022/04/25 08:27:43;;;;;;;11.43;7.95;;;13.60;82.00;;;;;;5074576;28;20070;-88
2022/04/25 08:30:11;;;;;;;9.38;7.57;;;13.80;81.40;;;;;;5081256;28;20046;-87
2022/04/25 08:32:37;;;;;;;8.40;7.25;;;14.20;82.20;;;;;;5078216;28;20016;-82
2022/04/25 08:35:03;;;;;;;10.40;8.23;;;14.80;79.70;;;;;;5071541;28;20055;-82
2022/04/25 08:37:29;;;;;;;8.93;7.80;;;15.00;77.50;;;;;;5068579;28;20025;-83
2022/04/25 08:39:55;;;;;;;10.52;8.18;;;14.90;76.00;;;;;;5068152;28;20028;-82
2022/04/25 08:42:21;;;;;;;11.93;8.13;;;14.80;76.20;;;;;;5088067;28;20088;-84
2022/04/25 08:44:55;;;;;;;10.93;9.18;;;14.70;77.80;;;;;;5071166;28;20025;-83
2022/04/25 08:47:24;;;;;;;10.68;9.07;;;14.50;77.70;;;;;;5069501;28;20078;-83
2022/04/25 08:49:50;;;;;;;12.45;8.85;;;14.40;78.10;;;;;;5069013;28;20035;-82
2022/04/25 08:52:17;;;;;;;10.52;8.70;;;14.50;78.70;;;;;;5071576;28;20076;-83
2022/04/25 08:54:46;;;;;;;10.77;8.90;;;14.80;78.10;;;;;;5071786;28;20111;-83
2022/04/25 08:57:13;;;;;;;10.15;8.45;;;15.00;75.60;;;;;;5059523;28;20045;-84
2022/04/25 08:59:39;;;;;;;8.30;6.65;;;15.10;75.90;;;;;;5052382;28;20024;-80
2022/04/25 09:02:06;;;;;;;8.95;8.05;;;15.30;75.80;;;;;;5069490;28;20044;-83
2022/04/25 09:04:34;;;;;;;10.52;7.65;;;15.50;72.50;;;;;;5058444;28;20028;-80
2022/04/25 09:07:06;;;;;;;7.47;6.68;;;15.50;70.50;;;;;;5064824;28;20035;-82
2022/04/25 09:09:33;;;;;;;8.88;6.40;;;15.50;70.70;;;;;;5064906;28;20025;-83
2022/04/25 09:12:14;;;;;;;5.30;4.80;;;15.50;70.30;;;;;;5052924;28;20025;-82
2022/04/25 09:14:44;;;;;;;6.85;6.15;;;15.50;70.50;;;;;;5046795;28;20032;-81
2022/04/25 09:17:13;;;;;;;9.30;6.22;;;15.60;66.70;;;;;;5043577;28;20089;-82
2022/04/25 09:19:41;;;;;;;7.90;6.55;;;15.40;67.10;;;;;;5046587;28;20025;-84
2022/04/25 09:22:09;;;;;;;8.25;6.35;;;15.20;68.70;;;;;;5051763;28;20029;-82
2022/04/25 09:24:43;;;;;;;8.75;5.78;;;15.10;69.20;;;;;;5068863;28;20089;-82
2022/04/25 09:27:28;;;;;;;9.00;6.35;;;15.20;70.20;;;;;;5071165;28;20068;-80
2022/04/25 09:29:54;;;;;;;8.95;6.88;;;15.30;68.30;;;;;;5077173;28;20029;-84
2022/04/25 09:32:32;;;;;;;9.13;6.78;;;15.40;68.50;;;;;;5074792;28;20504;-83
2022/04/25 09:35:00;;;;;;;8.48;7.00;;;15.30;68.90;;;;;;5073071;28;20020;-82
2022/04/25 09:37:41;;;;;;;7.45;6.70;;;15.30;67.70;;;;;;5086923;28;20031;-85
2022/04/25 09:40:07;;;;;;;7.22;6.53;;;15.20;67.90;;;;;;5074132;28;20017;-85
2022/04/25 09:42:33;;;;;;;8.63;6.90;;;15.00;68.60;;;;;;5091906;28;20024;-82
2022/04/25 09:45:00;;;;;;;11.25;9.02;;;14.90;69.50;;;;;;5073997;28;20020;-83
2022/04/25 09:47:34;;;;;;;10.90;9.48;;;14.90;70.10;;;;;;5068403;28;20073;-83
2022/04/25 09:50:09;;;;;;;10.23;7.95;;;14.80;71.50;;;;;;5064859;28;20055;-85
2022/04/25 09:52:50;;;;;;;13.77;11.00;;;14.80;72.80;;;;;;5083076;28;20028;-85
2022/04/25 09:55:17;;;;;;;9.00;8.10;;;14.90;71.90;;;;;;5067132;28;20591;-84
2022/04/25 09:57:45;;;;;;;14.00;9.13;;;15.10;72.40;;;;;;5066259;28;20028;-87
2022/04/25 10:00:11;;;;;;;11.82;9.00;;;15.50;72.50;;;;;;5096494;28;20009;-85
2022/04/25 10:02:41;;;;;;;9.70;8.27;;;15.80;68.90;;;;;;5064908;28;20073;-83
2022/04/25 10:05:17;;;;;;;8.05;7.07;;;15.90;67.40;;;;;;5049230;28;20025;-86
2022/04/25 10:07:44;;;;;;;9.55;8.55;;;15.70;68.10;;;;;;5046995;28;20037;-83
2022/04/25 10:10:11;;;;;;;11.77;9.80;;;15.30;66.70;;;;;;5047149;28;20095;-82
2022/04/25 10:12:38;;;;;;;11.93;9.20;;;15.00;68.90;;;;;;5047488;28;20101;-83
2022/04/25 10:15:05;;;;;;;10.70;8.52;;;14.90;70.60;;;;;;5049322;28;20057;-81
2022/04/25 10:17:32;;;;;;;8.60;7.22;;;14.70;70.50;;;;;;5048125;28;20029;-84
2022/04/25 10:20:01;;;;;;;9.18;7.43;;;14.70;71.10;;;;;;5044396;28;20094;-84
2022/04/25 10:22:27;;;;;;;7.95;6.18;;;14.90;71.10;;;;;;5046604;28;20077;-87
2022/04/25 10:24:53;;;;;;;6.78;6.07;;;15.50;69.50;;;;;;5048338;28;20025;-84
2022/04/25 10:27:28;;;;;;;6.32;4.25;;;16.10;65.20;;;;;;5049442;28;20039;-84
2022/04/25 10:29:58;;;;;;;8.73;7.35;;;16.70;64.20;;;;;;5048976;28;20029;-82
2022/04/25 10:32:25;;;;;;;6.95;5.40;;;17.30;61.10;;;;;;5040388;28;20481;-84
2022/04/25 10:35:01;;;;;;;6.05;5.45;;;17.70;60.60;;;;;;5063390;28;20040;-83
2022/04/25 10:37:32;;;;;;;7.43;6.00;;;18.00;58.70;;;;;;5085053;28;20273;-83
2022/04/25 10:40:00;;;;;;;8.05;7.00;;;18.30;57.20;;;;;;5066913;28;20096;-84
2022/04/25 10:45:10;;;;;;;9.43;8.23;;;18.60;55.60;;;;;;5083577;28;20040;-83
2022/04/25 10:47:58;;;;;;;11.50;9.40;;;18.10;57.40;;;;;;5065514;28;20029;-83
2022/04/25 10:50:24;;;;;;;10.77;9.70;;;17.70;58.60;;;;;;5084847;28;20620;-82
2022/04/25 10:55:23;;;;;;;10.57;8.30;;;16.30;61.40;;;;;;5083016;28;20492;-83
2022/04/25 10:58:04;;;;;;;8.13;6.97;;;16.40;61.10;;;;;;5051140;28;20025;-83
2022/04/25 11:00:41;;;;;;;10.38;7.97;;;16.70;60.20;;;;;;5050408;28;20023;-83
2022/04/25 11:03:08;;;;;;;7.80;6.80;;;17.00;58.90;;;;;;5082636;28;20051;-83
2022/04/25 11:05:35;;;;;;;7.35;6.45;;;17.40;58.30;;;;;;5069093;28;20029;-84
2022/04/25 11:08:16;;;;;;;7.43;5.22;;;17.70;56.70;;;;;;5063135;28;20043;-82
2022/04/25 11:11:17;;;;;;;5.80;5.18;;;17.40;56.80;;;;;;5082180;28;20176;-82
2022/04/25 11:13:49;;;;;;;7.13;5.30;;;17.90;56.00;;;;;;5082406;28;20031;-83
2022/04/25 11:16:22;;;;;;;7.25;6.45;;;18.70;54.50;;;;;;5083228;28;20084;-83
2022/04/25 11:19:11;;;;;;;10.40;7.15;;;19.10;53.20;;;;;;5079968;28;20465;-81
2022/04/25 11:21:55;;;;;;;7.05;6.35;;;19.30;52.70;;;;;;5064246;28;20381;-82
2022/04/25 11:24:35;;;;;;;6.95;6.25;;;19.10;52.50;;;;;;5080964;28;20043;-82
2022/04/25 11:27:05;;;;;;;9.27;7.20;;;18.30;54.20;;;;;;5063768;28;20029;-84
2022/04/25 11:29:31;;;;;;;7.95;7.00;;;17.60;55.50;;;;;;5074181;28;20025;-81
2022/04/25 11:32:25;;;;;;;9.98;8.20;;;17.30;56.50;;;;;;5095593;28;20019;-88
2022/04/25 11:34:52;;;;;;;8.15;6.00;;;16.90;57.70;;;;;;5095811;28;20021;-83
2022/04/25 11:37:22;;;;;;;7.13;5.43;;;17.10;57.90;;;;;;5066565;28;20369;-82
2022/04/25 11:40:06;;;;;;;6.88;6.13;;;17.30;57.20;;;;;;5062444;28;20075;-81
2022/04/25 11:42:34;;;;;;;8.55;7.65;;;17.70;55.70;;;;;;5060372;28;20075;-80
2022/04/25 11:45:01;;;;;;;9.73;7.05;;;18.20;54.10;;;;;;5062305;28;20024;-81
2022/04/25 11:47:29;;;;;;;7.68;6.82;;;18.50;53.70;;;;;;5063813;28;20032;-85
2022/04/25 11:49:57;;;;;;;6.07;5.47;;;18.20;52.50;;;;;;5045484;28;20043;-85
2022/04/25 11:52:23;;;;;;;5.20;4.70;;;17.80;54.20;;;;;;5063626;28;20057;-84
2022/04/25 11:54:50;;;;;;;6.28;4.50;;;17.80;55.10;;;;;;5045539;28;20043;-84
2022/04/25 11:57:15;;;;;;;5.88;5.32;;;18.10;55.00;;;;;;5063216;28;20017;-85
2022/04/25 11:59:41;;;;;;;4.80;4.38;;;18.50;52.90;;;;;;5063857;28;20028;-84
2022/04/25 12:02:07;;;;;;;4.88;4.43;;;19.00;51.90;;;;;;5045300;28;20028;-85
2022/04/25 12:04:33;;;;;;;4.97;4.47;;;19.50;50.70;;;;;;5059785;28;20028;-85
2022/04/25 12:07:06;;;;;;;8.15;7.30;;;20.10;48.90;;;;;;5084062;28;20025;-85
2022/04/25 12:15:42;;;;;;;7.80;6.85;;;19.50;50.50;;;;;;5062333;28;20039;-84
2022/04/25 12:18:15;;;;;;;8.23;7.43;;;19.30;51.30;;;;;;5075732;28;20037;-85
2022/04/25 12:20:43;;;;;;;8.30;6.88;;;18.50;52.20;;;;;;5084125;28;20016;-85
2022/04/25 12:23:21;;;;;;;9.25;7.68;;;18.20;53.90;;;;;;5069500;28;20016;-84
2022/04/25 12:25:47;;;;;;;7.90;6.50;;;18.60;53.20;;;;;;5073208;28;20034;-85
2022/04/25 12:28:17;;;;;;;7.85;7.10;;;18.90;52.10;;;;;;5072470;28;20052;-85
2022/04/25 12:30:50;;;;;;;9.25;7.43;;;19.10;51.00;;;;;;5071980;28;20055;-84
2022/04/25 12:33:18;;;;;;;6.70;6.10;;;19.00;51.20;;;;;;5083805;28;20025;-83
2022/04/25 12:35:45;;;;;;;7.70;6.88;;;19.00;51.90;;;;;;5067850;28;20043;-84
2022/04/25 12:38:34;;;;;;;7.57;6.88;;;19.10;50.60;;;;;;5068194;28;20021;-84
2022/04/25 12:41:00;;;;;;;6.43;5.82;;;18.80;50.40;;;;;;5074089;28;20016;-85
2022/04/25 12:43:37;;;;;;;7.82;6.85;;;18.30;52.00;;;;;;5079028;28;20426;-84
2022/04/25 12:46:04;;;;;;;8.07;6.28;;;18.50;52.20;;;;;;5093426;28;20025;-85
2022/04/25 12:48:30;;;;;;;5.57;5.05;;;18.60;51.40;;;;;;5074786;28;20024;-84
2022/04/25 12:50:59;;;;;;;6.90;6.25;;;18.80;51.00;;;;;;5086253;28;20031;-84
2022/04/25 12:53:41;;;;;;;5.78;5.28;;;18.70;50.20;;;;;;5067765;28;20043;-84
2022/04/25 12:56:08;;;;;;;7.25;5.15;;;18.40;51.70;;;;;;5074327;28;20017;-85
2022/04/25 12:58:34;;;;;;;4.00;3.55;;;18.10;52.10;;;;;;5049418;28;20043;-85
2022/04/25 13:01:00;;;;;;;7.85;5.85;;;18.70;52.40;;;;;;5053874;28;20032;-85
2022/04/25 13:03:26;;;;;;;5.32;4.88;;;19.40;48.80;;;;;;5069710;28;20046;-84
2022/04/25 13:05:53;;;;;;;5.20;4.72;;;19.50;48.50;;;;;;5083938;28;20074;-86
2022/04/25 13:08:20;;;;;;;6.20;4.88;;;18.90;48.90;;;;;;5083545;28;20058;-86
2022/04/25 13:10:46;;;;;;;6.20;5.07;;;18.40;50.10;;;;;;5068979;28;20043;-84
2022/04/25 13:13:11;;;;;;;8.48;7.45;;;18.60;50.80;;;;;;5062993;28;20107;-85
2022/04/25 13:15:38;;;;;;;7.75;6.95;;;18.90;50.10;;;;;;5045256;28;20088;-84
2022/04/25 13:18:05;;;;;;;6.88;6.18;;;19.40;49.20;;;;;;5063551;28;20025;-85
2022/04/25 13:20:31;;;;;;;5.78;5.28;;;19.40;49.40;;;;;;5050512;28;20088;-84
2022/04/25 13:22:59;;;;;;;5.78;5.28;;;19.40;49.10;;;;;;5043350;28;20103;-85
2022/04/25 13:25:25;;;;;;;6.43;5.75;;;19.50;47.60;;;;;;5061175;28;20032;-84
2022/04/25 13:27:52;;;;;;;6.38;5.47;;;19.10;47.40;;;;;;5047272;28;20096;-85
2022/04/25 13:30:19;;;;;;;5.85;5.05;;;18.40;49.10;;;;;;5047478;28;20120;-84
2022/04/25 13:32:46;;;;;;;7.72;6.70;;;18.20;50.10;;;;;;5064627;28;20025;-85
2022/04/25 13:35:16;;;;;;;6.15;5.57;;;18.30;50.20;;;;;;5068789;28;20060;-83
2022/04/25 13:37:42;;;;;;;5.90;4.78;;;18.40;50.60;;;;;;5066488;28;20021;-85
2022/04/25 13:40:08;;;;;;;5.18;4.68;;;18.40;51.10;;;;;;5045053;28;20087;-85
2022/04/25 13:42:34;;;;;;;6.47;4.30;;;18.30;50.90;;;;;;5047399;28;20056;-86